Time;durP1;ratioP1;P1;durP2;ratioP2;P2;SDS_P1;SDS_P2;PMS_P1;PMS_P2;Temp;Humidity;BMP_temperature;BMP_pressure;BME280_temperature;BME280_humidity;BME280_pressure;Samples;Min_cycle;Max_cycle;Signal;HPM_P1;HPM_P2
2022/08/16 00:01:32;;;;;;;0.10;0.10;;;18.40;99.90;;;;;;5073896;28;20100;-74
2022/08/16 00:03:58;;;;;;;0.30;0.30;;;18.30;99.90;;;;;;5073336;28;20028;-73
2022/08/16 00:06:24;;;;;;;0.28;0.20;;;18.40;99.90;;;;;;5073223;28;20099;-73
2022/08/16 00:08:50;;;;;;;0.43;0.43;;;18.60;99.90;;;;;;5073118;28;20055;-73
2022/08/16 00:11:16;;;;;;;0.15;0.15;;;18.50;99.90;;;;;;5073339;28;20079;-74
2022/08/16 00:13:43;;;;;;;0.10;0.10;;;18.60;99.90;;;;;;5073310;28;20408;-73
2022/08/16 00:16:10;;;;;;;0.10;0.10;;;18.60;99.90;;;;;;5073011;28;20483;-73
2022/08/16 00:18:36;;;;;;;0.85;0.85;;;18.50;99.90;;;;;;5071705;28;20090;-73
2022/08/16 00:21:02;;;;;;;0.13;0.13;;;18.30;99.90;;;;;;5071936;28;20404;-73
2022/08/16 00:23:27;;;;;;;0.22;0.22;;;18.30;99.90;;;;;;5073239;28;20494;-73
2022/08/16 00:25:53;;;;;;;0.17;0.17;;;18.40;99.90;;;;;;5073004;28;20123;-73
2022/08/16 00:28:20;;;;;;;0.10;0.10;;;18.40;99.90;;;;;;5073137;28;20031;-73
2022/08/16 00:30:46;;;;;;;0.10;0.10;;;18.50;99.90;;;;;;5072947;28;20025;-74
2022/08/16 00:33:12;;;;;;;0.10;0.10;;;18.70;99.90;;;;;;5071869;28;20507;-73
2022/08/16 00:35:38;;;;;;;0.10;0.10;;;18.70;99.90;;;;;;5072980;28;20095;-73
2022/08/16 00:38:05;;;;;;;0.65;0.65;;;18.60;99.90;;;;;;5072852;28;20028;-73
2022/08/16 00:40:41;;;;;;;0.03;0.03;;;18.60;99.90;;;;;;5071556;28;20115;-73
2022/08/16 00:43:20;;;;;;;0.10;0.10;;;18.70;99.90;;;;;;5072854;28;20099;-73
2022/08/16 00:48:43;;;;;;;0.63;0.30;;;18.80;99.90;;;;;;5109831;27;20720;-73
2022/08/16 00:51:10;;;;;;;0.10;0.10;;;18.50;99.90;;;;;;5110065;28;20042;-74
2022/08/16 00:53:36;;;;;;;0.10;0.10;;;18.50;99.90;;;;;;5108711;28;20020;-74
2022/08/16 00:56:07;;;;;;;0.10;0.10;;;18.70;99.90;;;;;;5109826;28;20024;-73
2022/08/16 00:58:36;;;;;;;0.10;0.10;;;18.70;99.90;;;;;;5109602;28;20028;-74
2022/08/16 01:01:06;;;;;;;0.10;0.10;;;18.80;99.90;;;;;;5108422;28;20028;-73
2022/08/16 01:03:32;;;;;;;2.63;2.50;;;19.00;99.90;;;;;;5091555;28;20036;-74
2022/08/16 01:05:58;;;;;;;0.10;0.10;;;19.30;99.90;;;;;;5109448;28;20046;-74
2022/08/16 01:08:26;;;;;;;0.10;0.10;;;19.30;99.90;;;;;;5109282;28;20024;-74
2022/08/16 01:10:54;;;;;;;0.75;0.40;;;19.20;99.90;;;;;;5109603;28;20491;-74
2022/08/16 01:13:26;;;;;;;0.10;0.10;;;19.10;99.90;;;;;;5109505;28;20020;-73
2022/08/16 01:16:14;;;;;;;0.10;0.10;;;18.80;99.90;;;;;;5090978;28;20067;-73
2022/08/16 01:18:45;;;;;;;0.10;0.10;;;18.60;99.90;;;;;;5107306;28;20088;-73
2022/08/16 01:21:30;;;;;;;0.23;0.23;;;18.50;99.90;;;;;;5109411;28;20065;-74
2022/08/16 01:24:09;;;;;;;0.28;0.20;;;18.40;99.90;;;;;;5108132;28;20277;-74
2022/08/16 01:26:36;;;;;;;0.00;0.00;;;18.40;99.90;;;;;;5090769;28;20027;-74
2022/08/16 01:29:07;;;;;;;0.10;0.10;;;18.40;99.90;;;;;;5107775;28;20024;-74
2022/08/16 01:31:33;;;;;;;0.00;0.00;;;18.50;99.90;;;;;;5109432;28;20386;-73
2022/08/16 01:33:59;;;;;;;0.10;0.10;;;18.60;99.90;;;;;;5107867;28;20262;-74
2022/08/16 01:36:25;;;;;;;0.25;0.25;;;18.60;99.90;;;;;;5109032;28;20020;-74
2022/08/16 01:38:50;;;;;;;0.10;0.10;;;18.70;99.90;;;;;;5107654;28;20502;-74
2022/08/16 01:41:24;;;;;;;0.10;0.10;;;18.90;99.90;;;;;;5108892;28;20020;-74
2022/08/16 01:43:52;;;;;;;0.10;0.10;;;19.00;99.90;;;;;;5107626;28;20407;-74
2022/08/16 01:46:29;;;;;;;0.10;0.10;;;19.20;99.90;;;;;;5108599;28;20495;-74
2022/08/16 01:49:04;;;;;;;0.00;0.00;;;19.30;99.90;;;;;;5108766;28;20058;-74
2022/08/16 01:51:31;;;;;;;0.22;0.22;;;19.20;99.90;;;;;;5107446;28;20526;-74
2022/08/16 01:53:57;;;;;;;0.10;0.10;;;19.10;99.90;;;;;;5108786;28;20024;-74
2022/08/16 01:56:24;;;;;;;0.10;0.10;;;19.00;99.90;;;;;;5108553;28;20380;-73
2022/08/16 01:58:51;;;;;;;0.10;0.10;;;18.90;99.90;;;;;;5101789;28;20027;-73
2022/08/16 02:01:17;;;;;;;0.10;0.10;;;18.80;99.90;;;;;;5093913;28;20024;-73
2022/08/16 02:03:42;;;;;;;0.10;0.10;;;18.60;99.90;;;;;;5093757;28;20028;-74
2022/08/16 02:06:08;;;;;;;0.10;0.10;;;18.70;99.90;;;;;;5093524;28;20016;-73
2022/08/16 02:08:34;;;;;;;0.10;0.10;;;18.80;99.90;;;;;;5093404;28;20031;-73
2022/08/16 02:11:03;;;;;;;0.10;0.10;;;18.50;99.90;;;;;;5095202;28;20043;-74
2022/08/16 02:13:29;;;;;;;0.10;0.10;;;18.60;99.90;;;;;;5093565;28;20380;-74
2022/08/16 02:15:55;;;;;;;0.10;0.10;;;18.60;99.90;;;;;;5094850;28;20020;-73
2022/08/16 02:18:21;;;;;;;0.10;0.10;;;18.50;99.90;;;;;;5093449;28;20032;-74
2022/08/16 02:20:50;;;;;;;0.10;0.10;;;18.50;99.90;;;;;;5094842;28;20035;-74
2022/08/16 02:23:17;;;;;;;0.20;0.20;;;18.50;99.90;;;;;;5094750;28;20016;-74
2022/08/16 02:25:43;;;;;;;0.10;0.10;;;18.60;99.90;;;;;;5094459;28;20047;-74
2022/08/16 02:28:09;;;;;;;0.30;0.30;;;18.40;99.90;;;;;;5094361;28;20027;-74
2022/08/16 02:30:35;;;;;;;0.10;0.10;;;18.30;99.90;;;;;;5094369;28;20016;-74
2022/08/16 02:33:02;;;;;;;0.32;0.32;;;18.20;99.90;;;;;;5094452;28;20476;-73
2022/08/16 02:35:28;;;;;;;0.10;0.10;;;18.10;99.90;;;;;;5094271;28;20027;-74
2022/08/16 02:37:54;;;;;;;0.10;0.10;;;18.00;99.90;;;;;;5094325;28;20083;-74
2022/08/16 02:40:22;;;;;;;0.20;0.20;;;18.00;99.90;;;;;;5076204;28;20028;-73
2022/08/16 02:42:49;;;;;;;0.10;0.10;;;17.80;99.90;;;;;;5092910;28;20020;-73
2022/08/16 02:45:18;;;;;;;0.38;0.38;;;17.60;99.90;;;;;;5092680;28;20034;-74
2022/08/16 02:47:43;;;;;;;1.27;0.17;;;17.50;99.90;;;;;;5093911;28;20047;-73
2022/08/16 02:50:09;;;;;;;0.10;0.10;;;17.50;99.90;;;;;;5094083;28;20028;-74
2022/08/16 02:52:35;;;;;;;0.10;0.10;;;17.50;99.90;;;;;;5094128;28;20024;-73
2022/08/16 02:55:01;;;;;;;0.10;0.10;;;17.70;99.90;;;;;;5093837;28;20039;-73
2022/08/16 02:57:27;;;;;;;0.17;0.17;;;17.80;99.90;;;;;;5093737;28;20020;-74
2022/08/16 02:59:52;;;;;;;0.30;0.30;;;17.80;99.90;;;;;;5093826;28;20050;-74
2022/08/16 03:02:18;;;;;;;0.10;0.10;;;17.60;99.90;;;;;;5094314;28;20376;-74
2022/08/16 03:04:44;;;;;;;0.10;0.10;;;17.40;99.90;;;;;;5092461;28;20024;-74
2022/08/16 03:07:11;;;;;;;0.10;0.10;;;17.30;99.90;;;;;;5092344;28;20365;-74
2022/08/16 03:09:37;;;;;;;0.10;0.10;;;17.20;99.90;;;;;;5091966;28;20025;-74
2022/08/16 03:12:04;;;;;;;0.10;0.10;;;17.10;99.90;;;;;;5092886;28;20027;-74
2022/08/16 03:14:31;;;;;;;0.08;0.08;;;17.10;99.90;;;;;;5093610;28;20032;-74
2022/08/16 03:16:57;;;;;;;0.15;0.15;;;17.20;99.90;;;;;;5092117;28;20024;-74
2022/08/16 03:19:24;;;;;;;0.20;0.20;;;17.30;99.90;;;;;;5093671;28;20099;-74
2022/08/16 03:21:50;;;;;;;0.10;0.10;;;17.30;99.90;;;;;;5093490;28;20024;-74
2022/08/16 03:24:16;;;;;;;0.10;0.10;;;17.30;99.90;;;;;;5092142;28;20034;-74
2022/08/16 03:26:41;;;;;;;0.10;0.10;;;17.40;99.90;;;;;;5093262;28;20147;-74
2022/08/16 03:29:07;;;;;;;0.10;0.10;;;17.50;99.90;;;;;;5091994;28;20077;-74
2022/08/16 03:31:33;;;;;;;0.10;0.10;;;17.50;99.90;;;;;;5093589;28;20030;-74
2022/08/16 03:33:58;;;;;;;0.10;0.10;;;17.40;99.90;;;;;;5093241;28;20016;-74
2022/08/16 03:36:24;;;;;;;0.00;0.00;;;17.50;99.90;;;;;;5091993;28;20098;-74
2022/08/16 03:38:50;;;;;;;0.10;0.10;;;17.50;99.90;;;;;;5075016;28;20089;-74
2022/08/16 03:41:16;;;;;;;0.35;0.35;;;17.50;99.90;;;;;;5074981;28;20499;-74
2022/08/16 03:43:42;;;;;;;0.10;0.10;;;17.40;99.90;;;;;;5093157;28;20021;-74
2022/08/16 03:46:09;;;;;;;0.10;0.10;;;17.30;99.90;;;;;;5091591;28;20071;-74
2022/08/16 03:48:37;;;;;;;0.10;0.10;;;17.40;99.90;;;;;;5056101;22;20133;-76
2022/08/16 03:51:06;;;;;;;0.10;0.10;;;17.30;99.90;;;;;;5031415;28;20053;-75
2022/08/16 03:53:33;;;;;;;0.10;0.10;;;17.40;99.90;;;;;;5032808;28;20388;-73
2022/08/16 03:55:58;;;;;;;0.10;0.10;;;17.30;99.90;;;;;;5032555;28;20057;-73
2022/08/16 03:58:24;;;;;;;0.10;0.10;;;17.20;99.90;;;;;;5032617;28;20053;-73
2022/08/16 04:00:50;;;;;;;0.20;0.20;;;17.10;99.90;;;;;;5031169;28;20109;-75
2022/08/16 04:03:16;;;;;;;0.10;0.10;;;17.00;99.90;;;;;;5032505;28;20033;-75
2022/08/16 04:05:45;;;;;;;0.13;0.13;;;17.00;99.90;;;;;;5031136;28;20434;-75
2022/08/16 04:08:11;;;;;;;0.20;0.20;;;17.10;99.90;;;;;;5032203;28;20029;-73
2022/08/16 04:10:38;;;;;;;0.10;0.10;;;17.20;99.90;;;;;;5032215;28;20075;-75
2022/08/16 04:13:04;;;;;;;0.10;0.10;;;17.30;99.90;;;;;;5032299;28;20025;-75
2022/08/16 04:15:30;;;;;;;0.40;0.40;;;17.30;99.90;;;;;;5030942;28;20028;-73
2022/08/16 04:17:56;;;;;;;0.10;0.10;;;17.50;99.90;;;;;;5031041;28;20014;-73
2022/08/16 04:20:23;;;;;;;0.43;0.43;;;17.40;99.90;;;;;;5032346;28;20388;-73
2022/08/16 04:22:49;;;;;;;0.20;0.20;;;17.30;99.90;;;;;;5031947;28;20025;-73
2022/08/16 04:25:15;;;;;;;0.10;0.10;;;17.00;99.90;;;;;;5032104;28;20036;-75
2022/08/16 04:27:41;;;;;;;0.10;0.10;;;16.90;99.90;;;;;;5031965;28;20026;-75
2022/08/16 04:30:11;;;;;;;0.10;0.10;;;17.00;99.90;;;;;;5032193;28;20366;-75
2022/08/16 04:32:38;;;;;;;0.10;0.10;;;16.90;99.90;;;;;;5032199;28;20030;-75
2022/08/16 04:35:06;;;;;;;0.10;0.10;;;16.80;99.90;;;;;;5031888;28;20022;-75
2022/08/16 04:37:31;;;;;;;0.10;0.10;;;16.60;99.90;;;;;;5031854;28;20030;-76
2022/08/16 04:39:57;;;;;;;0.25;0.25;;;16.30;99.90;;;;;;5031955;28;20079;-73
2022/08/16 04:42:23;;;;;;;0.10;0.10;;;16.30;99.90;;;;;;5032088;28;20036;-73
2022/08/16 04:44:49;;;;;;;0.10;0.10;;;16.30;99.90;;;;;;5031855;28;20402;-75
2022/08/16 04:47:15;;;;;;;0.20;0.20;;;16.30;99.90;;;;;;5030493;28;20108;-72
2022/08/16 04:49:40;;;;;;;0.10;0.10;;;16.30;99.90;;;;;;5031962;28;20105;-72
2022/08/16 04:52:06;;;;;;;2.08;1.05;;;16.20;99.90;;;;;;5031922;28;20070;-73
2022/08/16 04:54:32;;;;;;;0.32;0.25;;;16.40;99.90;;;;;;5031768;28;20025;-73
2022/08/16 04:56:58;;;;;;;0.28;0.28;;;16.50;99.90;;;;;;5030755;28;20079;-75
2022/08/16 04:59:23;;;;;;;0.10;0.10;;;16.60;99.90;;;;;;5031702;28;20026;-75
2022/08/16 05:01:55;;;;;;;0.10;0.10;;;16.70;99.90;;;;;;5030463;28;20029;-75
2022/08/16 05:04:24;;;;;;;0.10;0.10;;;16.60;99.90;;;;;;5031701;28;20408;-75
2022/08/16 05:06:50;;;;;;;0.10;0.10;;;16.80;99.90;;;;;;5030233;28;20347;-73
2022/08/16 05:09:17;;;;;;;0.08;0.08;;;17.00;99.90;;;;;;5031672;28;20048;-73
2022/08/16 05:11:44;;;;;;;3.83;0.20;;;17.10;99.90;;;;;;5030349;28;20032;-72
2022/08/16 05:14:10;;;;;;;0.40;0.40;;;17.10;99.90;;;;;;5030206;28;20030;-73
2022/08/16 05:16:36;;;;;;;0.10;0.10;;;16.90;99.90;;;;;;5032023;28;20024;-73
2022/08/16 05:19:03;;;;;;;0.10;0.10;;;16.80;99.90;;;;;;5031548;28;20013;-72
2022/08/16 05:21:30;;;;;;;0.08;0.08;;;16.80;99.90;;;;;;5031453;28;20022;-73
2022/08/16 05:23:56;;;;;;;0.10;0.10;;;17.00;99.90;;;;;;5031568;28;20030;-72
2022/08/16 05:26:23;;;;;;;0.10;0.10;;;17.30;99.90;;;;;;5031425;28;20032;-73
2022/08/16 05:28:49;;;;;;;0.10;0.10;;;17.50;99.90;;;;;;5029581;28;20026;-73
2022/08/16 05:31:15;;;;;;;0.10;0.10;;;17.50;99.90;;;;;;5031365;28;20027;-73
2022/08/16 05:33:42;;;;;;;0.17;0.17;;;17.50;99.90;;;;;;5032886;28;20367;-73
2022/08/16 05:36:09;;;;;;;0.10;0.10;;;17.40;99.90;;;;;;5033797;28;20300;-73
2022/08/16 05:38:35;;;;;;;0.10;0.10;;;17.40;99.90;;;;;;5033314;28;20064;-75
2022/08/16 05:41:02;;;;;;;0.10;0.10;;;17.50;99.90;;;;;;5033583;28;20029;-75
2022/08/16 05:43:28;;;;;;;0.20;0.20;;;17.40;99.90;;;;;;5035102;28;20030;-75
2022/08/16 05:45:56;;;;;;;0.10;0.10;;;17.50;99.90;;;;;;5034816;28;20041;-73
2022/08/16 05:48:21;;;;;;;0.10;0.10;;;17.50;99.90;;;;;;5034683;28;20037;-76
2022/08/16 05:50:47;;;;;;;0.10;0.10;;;17.60;99.90;;;;;;5035100;28;20113;-73
2022/08/16 05:53:13;;;;;;;0.10;0.10;;;17.70;99.90;;;;;;5033604;28;20147;-73
2022/08/16 05:55:39;;;;;;;0.32;0.32;;;17.70;99.90;;;;;;5034589;28;20049;-73
2022/08/16 05:58:05;;;;;;;0.10;0.10;;;17.90;99.90;;;;;;5034774;28;20498;-73
2022/08/16 06:00:31;;;;;;;0.10;0.10;;;17.90;99.90;;;;;;5034810;28;20186;-73
2022/08/16 06:02:57;;;;;;;0.10;0.10;;;18.00;99.90;;;;;;5034654;28;20037;-72
2022/08/16 06:05:24;;;;;;;0.10;0.10;;;18.10;99.90;;;;;;5034640;28;20481;-72
2022/08/16 06:07:50;;;;;;;0.10;0.10;;;18.10;99.90;;;;;;5033291;28;20021;-75
2022/08/16 06:10:17;;;;;;;0.00;0.00;;;18.10;99.90;;;;;;5034615;28;20053;-73
2022/08/16 06:12:42;;;;;;;0.63;0.40;;;18.00;99.90;;;;;;5034537;28;20030;-72
2022/08/16 06:15:13;;;;;;;0.10;0.10;;;18.20;99.90;;;;;;5032872;28;20477;-73
2022/08/16 06:17:40;;;;;;;0.10;0.10;;;18.40;99.90;;;;;;5034381;28;20393;-73
2022/08/16 06:20:07;;;;;;;0.13;0.13;;;18.70;99.90;;;;;;5034128;28;20512;-73
2022/08/16 06:22:36;;;;;;;0.10;0.10;;;18.70;99.90;;;;;;5033170;28;20443;-72
2022/08/16 06:25:02;;;;;;;0.10;0.10;;;18.60;99.90;;;;;;5034021;28;20022;-73
2022/08/16 06:27:28;;;;;;;0.30;0.30;;;18.60;99.90;;;;;;5034161;28;20036;-73
2022/08/16 06:29:54;;;;;;;0.00;0.00;;;18.70;99.90;;;;;;5034314;28;20022;-73
2022/08/16 06:32:20;;;;;;;0.10;0.10;;;18.80;99.90;;;;;;5032904;28;20477;-76
2022/08/16 06:34:45;;;;;;;0.10;0.10;;;19.00;99.90;;;;;;5033523;28;20068;-72
2022/08/16 06:37:11;;;;;;;0.10;0.10;;;19.00;99.90;;;;;;5044830;28;20036;-73
2022/08/16 06:39:37;;;;;;;0.20;0.20;;;19.20;99.90;;;;;;5034737;28;20104;-73
2022/08/16 06:42:03;;;;;;;0.10;0.10;;;19.30;99.90;;;;;;5032572;28;20025;-73
2022/08/16 06:44:29;;;;;;;0.22;0.22;;;19.40;99.90;;;;;;5034057;28;20374;-73
2022/08/16 06:46:55;;;;;;;0.10;0.10;;;19.40;99.90;;;;;;5016136;28;20148;-75
2022/08/16 06:49:20;;;;;;;0.10;0.10;;;19.50;99.90;;;;;;5033828;28;20068;-73
2022/08/16 06:51:46;;;;;;;0.10;0.10;;;19.80;99.90;;;;;;5033105;28;20072;-74
2022/08/16 06:54:12;;;;;;;0.10;0.10;;;20.00;99.90;;;;;;5031745;28;20409;-74
2022/08/16 06:56:38;;;;;;;0.03;0.03;;;20.10;99.90;;;;;;5030611;28;20056;-73
2022/08/16 06:59:04;;;;;;;0.10;0.10;;;20.30;99.90;;;;;;5032686;28;20100;-74
2022/08/16 07:01:29;;;;;;;0.10;0.10;;;20.30;99.90;;;;;;5032865;28;20018;-76
2022/08/16 07:03:55;;;;;;;0.10;0.10;;;20.50;99.90;;;;;;5030894;28;20028;-75
2022/08/16 07:06:22;;;;;;;0.10;0.10;;;20.50;99.90;;;;;;5032222;28;20026;-77
2022/08/16 07:08:48;;;;;;;0.10;0.10;;;20.70;99.90;;;;;;5033508;28;20025;-78
2022/08/16 07:11:15;;;;;;;0.10;0.10;;;20.90;99.90;;;;;;5019324;28;20048;-79
2022/08/16 07:13:41;;;;;;;0.10;0.10;;;21.00;99.90;;;;;;5035850;28;20074;-80
2022/08/16 07:16:13;;;;;;;0.00;0.00;;;21.30;99.90;;;;;;5034254;28;20028;-77
2022/08/16 07:18:43;;;;;;;0.10;0.10;;;21.40;99.90;;;;;;5033726;28;20481;-75
2022/08/16 07:21:11;;;;;;;0.05;0.05;;;21.50;99.90;;;;;;4997240;28;20397;-78
2022/08/16 07:23:42;;;;;;;0.10;0.10;;;21.60;99.90;;;;;;5013281;28;20022;-78
2022/08/16 07:26:13;;;;;;;0.00;0.00;;;21.70;99.90;;;;;;5013863;28;20037;-78
2022/08/16 07:28:39;;;;;;;0.10;0.10;;;21.80;99.90;;;;;;5031300;28;20097;-76
2022/08/16 07:31:05;;;;;;;0.03;0.03;;;22.00;99.90;;;;;;5015426;28;20057;-76
2022/08/16 07:33:33;;;;;;;0.00;0.00;;;22.20;99.90;;;;;;5032980;28;20101;-76
2022/08/16 07:36:00;;;;;;;0.00;0.00;;;22.20;99.90;;;;;;5014894;28;20054;-75
2022/08/16 07:38:26;;;;;;;0.10;0.10;;;22.20;99.90;;;;;;5031630;28;20026;-76
2022/08/16 07:40:54;;;;;;;0.08;0.08;;;22.20;96.70;;;;;;5031605;28;20025;-76
2022/08/16 07:43:21;;;;;;;0.45;0.45;;;22.30;97.60;;;;;;5032393;28;20030;-76
2022/08/16 07:45:47;;;;;;;0.00;0.00;;;22.30;95.10;;;;;;5056910;28;20033;-76
2022/08/16 07:48:12;;;;;;;0.10;0.10;;;22.50;93.80;;;;;;5031033;28;20030;-76
2022/08/16 07:50:40;;;;;;;0.10;0.10;;;22.90;93.10;;;;;;5031505;28;20060;-76
2022/08/16 07:53:07;;;;;;;0.10;0.10;;;23.10;90.70;;;;;;5030971;28;20024;-76
2022/08/16 07:55:32;;;;;;;0.00;0.00;;;23.00;91.20;;;;;;5032018;28;20450;-76
2022/08/16 07:57:58;;;;;;;0.73;0.57;;;23.30;90.90;;;;;;5031796;28;20101;-76
2022/08/16 08:00:24;;;;;;;0.15;0.15;;;23.40;89.80;;;;;;5014730;28;20021;-76
2022/08/16 08:02:50;;;;;;;0.10;0.10;;;23.30;86.60;;;;;;5032384;28;20427;-76
2022/08/16 08:05:16;;;;;;;0.00;0.00;;;23.40;86.20;;;;;;5030369;28;20026;-76
2022/08/16 08:07:42;;;;;;;0.10;0.10;;;23.30;87.50;;;;;;5030914;28;20125;-76
2022/08/16 08:10:08;;;;;;;0.00;0.00;;;23.60;86.80;;;;;;5030700;28;20108;-76
2022/08/16 08:12:34;;;;;;;0.10;0.10;;;23.70;83.80;;;;;;5030617;28;20100;-76
2022/08/16 08:15:01;;;;;;;0.20;0.20;;;24.00;83.30;;;;;;5032141;28;20131;-76
2022/08/16 08:17:30;;;;;;;0.00;0.00;;;24.20;79.60;;;;;;5030973;28;20033;-76
2022/08/16 08:19:58;;;;;;;0.00;0.00;;;24.30;78.20;;;;;;5032020;28;20036;-77
2022/08/16 08:22:24;;;;;;;0.00;0.00;;;24.30;78.20;;;;;;5030753;28;20030;-78
2022/08/16 08:24:50;;;;;;;0.17;0.17;;;24.50;79.00;;;;;;5014576;28;20029;-76
2022/08/16 08:27:16;;;;;;;0.20;0.20;;;24.60;78.00;;;;;;5030471;28;20025;-77
2022/08/16 08:29:42;;;;;;;0.00;0.00;;;24.90;77.40;;;;;;5030980;28;20033;-77
2022/08/16 08:32:09;;;;;;;0.00;0.00;;;24.80;77.00;;;;;;5030428;28;20025;-77
2022/08/16 08:34:35;;;;;;;0.00;0.00;;;24.90;77.50;;;;;;5031783;28;20482;-75
2022/08/16 08:37:00;;;;;;;0.00;0.00;;;25.20;74.90;;;;;;5031705;28;20105;-77
2022/08/16 08:39:26;;;;;;;0.00;0.00;;;25.30;73.90;;;;;;5030500;28;20433;-77
2022/08/16 08:41:52;;;;;;;0.00;0.00;;;25.50;74.20;;;;;;5030686;28;20104;-77
2022/08/16 08:44:19;;;;;;;0.00;0.00;;;25.80;73.60;;;;;;5031763;28;20077;-76
2022/08/16 08:46:45;;;;;;;0.00;0.00;;;26.10;70.40;;;;;;5042278;28;20029;-75
2022/08/16 08:49:11;;;;;;;0.00;0.00;;;26.30;68.90;;;;;;5050198;28;20507;-77
2022/08/16 08:51:37;;;;;;;0.00;0.00;;;26.50;67.70;;;;;;5019465;28;20030;-76
2022/08/16 08:54:10;;;;;;;0.00;0.00;;;26.50;65.50;;;;;;5030761;28;20018;-76
2022/08/16 08:56:36;;;;;;;0.10;0.10;;;26.50;65.50;;;;;;5029767;28;20025;-76
2022/08/16 08:59:05;;;;;;;0.00;0.00;;;26.20;65.00;;;;;;5031342;28;20694;-76
2022/08/16 09:01:33;;;;;;;0.00;0.00;;;26.20;67.40;;;;;;5030144;28;20022;-76
2022/08/16 09:04:00;;;;;;;0.05;0.05;;;26.50;65.40;;;;;;5030168;28;20026;-76
2022/08/16 09:06:26;;;;;;;0.00;0.00;;;26.80;64.90;;;;;;5029855;28;20025;-76
2022/08/16 09:08:52;;;;;;;0.00;0.00;;;27.10;62.90;;;;;;5045805;28;20481;-76
2022/08/16 09:11:18;;;;;;;0.00;0.00;;;27.30;63.20;;;;;;5035370;28;20029;-77
2022/08/16 09:13:44;;;;;;;0.00;0.00;;;27.10;62.00;;;;;;5035040;28;20092;-77
2022/08/16 09:16:10;;;;;;;0.00;0.00;;;27.40;61.20;;;;;;5034990;28;20021;-76
2022/08/16 09:18:36;;;;;;;0.30;0.30;;;27.60;60.70;;;;;;5033685;28;20524;-77
2022/08/16 09:21:02;;;;;;;0.00;0.00;;;27.80;59.60;;;;;;5035131;28;20056;-76
2022/08/16 09:23:29;;;;;;;0.10;0.10;;;27.80;58.90;;;;;;5034486;28;20025;-76
2022/08/16 09:25:55;;;;;;;0.10;0.10;;;28.20;58.30;;;;;;5032094;28;20029;-76
2022/08/16 09:28:21;;;;;;;0.00;0.00;;;28.50;57.10;;;;;;5032717;28;20064;-76
2022/08/16 09:30:48;;;;;;;0.10;0.10;;;28.70;56.00;;;;;;5031996;28;20029;-76
2022/08/16 09:33:18;;;;;;;0.00;0.00;;;28.70;56.50;;;;;;5033416;28;20427;-76
2022/08/16 09:35:46;;;;;;;0.08;0.08;;;28.80;57.20;;;;;;5034457;28;20031;-76
2022/08/16 09:38:13;;;;;;;0.10;0.10;;;29.00;57.20;;;;;;5033481;28;20029;-76
2022/08/16 09:40:40;;;;;;;0.20;0.20;;;29.00;57.50;;;;;;5033569;28;20032;-76
2022/08/16 09:43:11;;;;;;;0.00;0.00;;;28.70;56.30;;;;;;5015827;28;20021;-76
2022/08/16 09:45:40;;;;;;;0.68;0.28;;;28.60;56.90;;;;;;5034447;28;20052;-77
2022/08/16 09:50:34;;;;;;;0.40;0.38;;;29.20;56.30;;;;;;5036660;28;20516;-74
2022/08/16 09:53:02;;;;;;;0.00;0.00;;;29.20;56.20;;;;;;5034664;28;20014;-74
2022/08/16 09:55:28;;;;;;;0.00;0.00;;;29.40;56.30;;;;;;5034770;28;20029;-73
2022/08/16 09:57:53;;;;;;;0.00;0.00;;;29.60;56.00;;;;;;5016399;28;20018;-74
2022/08/16 10:00:19;;;;;;;0.00;0.00;;;29.90;54.60;;;;;;5048000;28;20388;-74
2022/08/16 10:02:46;;;;;;;0.00;0.00;;;30.00;54.50;;;;;;5054990;28;20099;-75
2022/08/16 10:05:11;;;;;;;0.00;0.00;;;30.10;53.50;;;;;;5054794;28;20480;-74
2022/08/16 10:07:38;;;;;;;0.00;0.00;;;30.00;52.40;;;;;;5053273;28;20036;-74
2022/08/16 10:10:05;;;;;;;0.03;0.03;;;29.90;52.90;;;;;;5054812;28;20029;-74
2022/08/16 10:15:19;;;;;;;0.30;0.30;;;30.20;54.00;;;;;;5054974;28;20029;-75
2022/08/16 10:17:57;;;;;;;1.30;0.98;;;30.30;53.10;;;;;;5024354;28;20048;-77
2022/08/16 10:20:26;;;;;;;0.00;0.00;;;29.70;54.00;;;;;;5040228;28;20021;-77
2022/08/16 10:22:53;;;;;;;0.10;0.10;;;29.80;53.90;;;;;;5060924;28;20084;-77
2022/08/16 10:25:20;;;;;;;0.10;0.10;;;29.70;51.30;;;;;;5041954;28;20036;-78
2022/08/16 10:27:46;;;;;;;0.00;0.00;;;29.70;51.50;;;;;;5040763;28;20552;-77
2022/08/16 10:30:14;;;;;;;0.10;0.10;;;30.20;52.60;;;;;;5060716;28;20369;-77
2022/08/16 10:32:40;;;;;;;0.00;0.00;;;30.40;52.10;;;;;;5058395;28;20095;-76
2022/08/16 10:35:06;;;;;;;0.10;0.10;;;30.70;51.20;;;;;;5056276;28;20047;-77
2022/08/16 10:37:32;;;;;;;0.32;0.30;;;30.60;51.50;;;;;;5054682;28;20025;-77
2022/08/16 10:40:00;;;;;;;0.00;0.00;;;30.90;50.90;;;;;;5053762;28;20028;-77
2022/08/16 10:42:26;;;;;;;0.13;0.10;;;31.20;50.40;;;;;;5054289;28;20361;-78
2022/08/16 10:44:52;;;;;;;0.00;0.00;;;31.40;49.50;;;;;;5058130;28;20029;-78
2022/08/16 10:47:18;;;;;;;0.90;0.90;;;31.50;49.10;;;;;;5058456;28;20035;-78
2022/08/16 10:49:44;;;;;;;0.00;0.00;;;31.70;47.90;;;;;;5057515;28;20108;-77
2022/08/16 10:52:10;;;;;;;0.75;0.35;;;31.90;46.80;;;;;;5054577;28;20017;-76
2022/08/16 10:54:35;;;;;;;0.00;0.00;;;31.30;46.00;;;;;;5052545;28;20104;-76
2022/08/16 10:57:03;;;;;;;1.00;0.22;;;31.00;46.60;;;;;;5055119;28;20511;-75
2022/08/16 10:59:30;;;;;;;0.00;0.00;;;31.30;47.10;;;;;;5056899;28;20029;-78
2022/08/16 11:01:57;;;;;;;0.00;0.00;;;31.90;45.70;;;;;;5058463;28;20024;-78
2022/08/16 11:04:23;;;;;;;0.00;0.00;;;32.00;45.10;;;;;;5040599;28;20032;-78
2022/08/16 11:06:48;;;;;;;0.20;0.20;;;31.70;45.80;;;;;;5058083;28;20107;-78
2022/08/16 11:09:14;;;;;;;0.00;0.00;;;31.90;46.50;;;;;;5058105;28;20033;-78
2022/08/16 11:11:40;;;;;;;0.20;0.20;;;31.90;45.40;;;;;;5056552;28;20032;-77
2022/08/16 11:14:06;;;;;;;0.40;0.40;;;32.30;45.60;;;;;;5054633;28;20017;-78
2022/08/16 11:16:32;;;;;;;0.00;0.00;;;32.10;44.50;;;;;;5055378;28;20017;-76
2022/08/16 11:18:58;;;;;;;0.10;0.10;;;32.00;45.60;;;;;;5056325;28;20025;-75
2022/08/16 11:21:24;;;;;;;0.10;0.10;;;31.70;45.40;;;;;;5057801;28;20048;-77
2022/08/16 11:23:52;;;;;;;0.00;0.00;;;31.90;45.20;;;;;;5057640;28;20029;-77
2022/08/16 11:26:18;;;;;;;0.40;0.40;;;32.50;44.80;;;;;;5056476;28;20025;-77
2022/08/16 11:28:44;;;;;;;0.00;0.00;;;32.70;43.80;;;;;;5054985;28;20028;-76
2022/08/16 11:31:10;;;;;;;0.10;0.10;;;32.80;44.00;;;;;;5053626;28;20097;-75
2022/08/16 11:33:36;;;;;;;0.05;0.05;;;32.50;44.80;;;;;;5050707;28;20104;-76
2022/08/16 11:36:03;;;;;;;0.20;0.20;;;32.70;44.60;;;;;;5040275;28;20044;-76
2022/08/16 11:38:29;;;;;;;0.00;0.00;;;32.50;44.10;;;;;;5022115;28;20087;-77
2022/08/16 11:40:57;;;;;;;0.00;0.00;;;32.10;44.60;;;;;;5040114;28;20025;-76
2022/08/16 11:43:34;;;;;;;3.10;0.82;;;32.10;44.60;;;;;;5056451;28;20024;-78
2022/08/16 11:46:07;;;;;;;0.57;0.38;;;32.30;44.50;;;;;;5036930;28;20033;-75
2022/08/16 11:48:33;;;;;;;0.13;0.13;;;32.30;43.20;;;;;;5034028;28;20108;-77
2022/08/16 11:51:00;;;;;;;0.00;0.00;;;32.50;43.50;;;;;;5037348;28;20091;-77
2022/08/16 11:53:28;;;;;;;0.00;0.00;;;32.40;43.00;;;;;;5059500;28;20084;-77
2022/08/16 11:55:55;;;;;;;0.00;0.00;;;32.60;42.30;;;;;;5052793;28;20111;-76
2022/08/16 11:58:30;;;;;;;0.00;0.00;;;32.80;42.50;;;;;;5054645;28;20055;-77
2022/08/16 12:01:12;;;;;;;0.47;0.47;;;32.60;42.90;;;;;;5058410;28;20050;-78
2022/08/16 12:03:38;;;;;;;0.10;0.10;;;32.50;42.80;;;;;;5037138;28;20531;-81
2022/08/16 12:06:12;;;;;;;0.00;0.00;;;31.90;43.60;;;;;;5055228;28;20021;-78
2022/08/16 12:08:41;;;;;;;0.13;0.13;;;31.60;44.00;;;;;;5051497;28;20557;-77
2022/08/16 12:11:07;;;;;;;0.00;0.00;;;31.70;44.20;;;;;;5064258;28;20025;-80
2022/08/16 12:13:33;;;;;;;0.77;0.68;;;31.80;44.00;;;;;;5043414;28;20411;-79
2022/08/16 12:15:59;;;;;;;0.00;0.00;;;31.50;43.20;;;;;;5044276;28;20052;-79
2022/08/16 12:18:25;;;;;;;0.00;0.00;;;31.40;43.70;;;;;;5036320;28;20094;-78
2022/08/16 12:20:51;;;;;;;0.43;0.10;;;31.70;43.10;;;;;;5040567;28;20069;-79
2022/08/16 12:23:17;;;;;;;0.32;0.32;;;31.60;42.90;;;;;;5041394;28;20017;-79
2022/08/16 12:25:43;;;;;;;0.00;0.00;;;31.30;43.10;;;;;;5057669;28;20033;-79
2022/08/16 12:28:09;;;;;;;0.00;0.00;;;31.20;43.50;;;;;;5057141;28;20039;-78
2022/08/16 12:30:39;;;;;;;0.10;0.10;;;31.00;43.70;;;;;;5058950;28;20031;-78
2022/08/16 12:33:10;;;;;;;0.00;0.00;;;31.00;43.00;;;;;;5040496;28;20017;-78
2022/08/16 12:35:37;;;;;;;0.25;0.25;;;31.00;44.00;;;;;;5040011;28;20484;-79
2022/08/16 12:38:04;;;;;;;0.20;0.20;;;31.00;43.60;;;;;;5040334;28;20037;-79
2022/08/16 12:40:33;;;;;;;0.00;0.00;;;31.00;44.50;;;;;;5041008;28;20057;-79
2022/08/16 12:43:01;;;;;;;0.32;0.32;;;31.10;44.40;;;;;;5041960;28;20025;-78
2022/08/16 12:45:38;;;;;;;0.00;0.00;;;30.90;43.30;;;;;;5040607;28;20469;-79
2022/08/16 12:50:51;;;;;;;0.00;0.00;;;30.40;44.30;;;;;;5056859;28;20029;-78
2022/08/16 12:53:19;;;;;;;0.00;0.00;;;30.60;44.20;;;;;;5057918;28;20033;-78
2022/08/16 12:55:46;;;;;;;0.00;0.00;;;30.70;44.00;;;;;;5052384;28;20115;-78
2022/08/16 12:58:13;;;;;;;0.00;0.00;;;30.90;43.60;;;;;;5047802;28;20107;-78